sensor_id;sensor_type;location;lat;lon;timestamp;temperature;humidity
40085;DHT22;25786;51.504;7.344;2023-04-15T00:00:25;8.50;73.20
40085;DHT22;25786;51.504;7.344;2023-04-15T00:02:51;8.50;73.40
40085;DHT22;25786;51.504;7.344;2023-04-15T00:05:17;8.40;73.50
40085;DHT22;25786;51.504;7.344;2023-04-15T00:07:42;8.40;72.90
40085;DHT22;25786;51.504;7.344;2023-04-15T00:10:08;8.50;72.20
40085;DHT22;25786;51.504;7.344;2023-04-15T00:12:33;8.50;72.20
40085;DHT22;25786;51.504;7.344;2023-04-15T00:14:59;8.50;72.60
40085;DHT22;25786;51.504;7.344;2023-04-15T00:17:24;8.40;72.80
40085;DHT22;25786;51.504;7.344;2023-04-15T00:19:50;8.50;72.40
40085;DHT22;25786;51.504;7.344;2023-04-15T00:22:15;8.50;72.80
40085;DHT22;25786;51.504;7.344;2023-04-15T00:24:41;8.50;72.90
40085;DHT22;25786;51.504;7.344;2023-04-15T00:27:07;8.50;73.00
40085;DHT22;25786;51.504;7.344;2023-04-15T00:29:32;8.40;73.10
40085;DHT22;25786;51.504;7.344;2023-04-15T00:31:58;8.30;73.50
40085;DHT22;25786;51.504;7.344;2023-04-15T00:34:23;8.30;73.70
40085;DHT22;25786;51.504;7.344;2023-04-15T00:36:49;8.20;73.60
40085;DHT22;25786;51.504;7.344;2023-04-15T00:39:15;8.10;74.60
40085;DHT22;25786;51.504;7.344;2023-04-15T00:41:41;8.20;74.40
40085;DHT22;25786;51.504;7.344;2023-04-15T00:44:07;8.20;74.80
40085;DHT22;25786;51.504;7.344;2023-04-15T00:46:37;8.20;74.80
40085;DHT22;25786;51.504;7.344;2023-04-15T00:49:04;8.20;74.50
40085;DHT22;25786;51.504;7.344;2023-04-15T00:51:29;8.20;74.10
40085;DHT22;25786;51.504;7.344;2023-04-15T00:54:01;8.20;74.30
40085;DHT22;25786;51.504;7.344;2023-04-15T00:56:27;8.20;74.30
40085;DHT22;25786;51.504;7.344;2023-04-15T00:58:53;8.10;74.30
40085;DHT22;25786;51.504;7.344;2023-04-15T01:01:22;8.00;74.80
40085;DHT22;25786;51.504;7.344;2023-04-15T01:03:49;8.00;75.80
40085;DHT22;25786;51.504;7.344;2023-04-15T01:06:15;8.00;76.10
40085;DHT22;25786;51.504;7.344;2023-04-15T01:08:41;7.90;75.70
40085;DHT22;25786;51.504;7.344;2023-04-15T01:11:07;7.90;76.30
40085;DHT22;25786;51.504;7.344;2023-04-15T01:13:34;8.00;75.60
40085;DHT22;25786;51.504;7.344;2023-04-15T01:16:00;7.90;75.40
40085;DHT22;25786;51.504;7.344;2023-04-15T01:18:27;7.90;76.20
40085;DHT22;25786;51.504;7.344;2023-04-15T01:20:53;7.80;76.20
40085;DHT22;25786;51.504;7.344;2023-04-15T01:23:19;7.80;76.90
40085;DHT22;25786;51.504;7.344;2023-04-15T01:25:46;7.80;76.70
40085;DHT22;25786;51.504;7.344;2023-04-15T01:28:12;7.70;77.10
40085;DHT22;25786;51.504;7.344;2023-04-15T01:30:37;7.70;76.80
40085;DHT22;25786;51.504;7.344;2023-04-15T01:33:02;7.60;76.80
40085;DHT22;25786;51.504;7.344;2023-04-15T01:35:28;7.60;76.90
40085;DHT22;25786;51.504;7.344;2023-04-15T01:37:54;7.60;77.10
40085;DHT22;25786;51.504;7.344;2023-04-15T01:40:23;7.60;77.00
40085;DHT22;25786;51.504;7.344;2023-04-15T01:42:49;7.60;76.90
40085;DHT22;25786;51.504;7.344;2023-04-15T01:45:14;7.60;77.00
40085;DHT22;25786;51.504;7.344;2023-04-15T01:47:40;7.60;76.90
40085;DHT22;25786;51.504;7.344;2023-04-15T01:50:05;7.60;76.90
40085;DHT22;25786;51.504;7.344;2023-04-15T01:52:31;7.60;76.90
40085;DHT22;25786;51.504;7.344;2023-04-15T01:54:56;7.50;77.30
40085;DHT22;25786;51.504;7.344;2023-04-15T01:57:22;7.50;77.90
40085;DHT22;25786;51.504;7.344;2023-04-15T01:59:47;7.60;78.00
40085;DHT22;25786;51.504;7.344;2023-04-15T02:02:12;7.60;77.60
40085;DHT22;25786;51.504;7.344;2023-04-15T02:04:38;7.60;77.40
40085;DHT22;25786;51.504;7.344;2023-04-15T02:07:03;7.60;77.50
40085;DHT22;25786;51.504;7.344;2023-04-15T02:09:29;7.50;77.80
40085;DHT22;25786;51.504;7.344;2023-04-15T02:11:56;7.60;77.30
40085;DHT22;25786;51.504;7.344;2023-04-15T02:14:21;7.60;77.00
40085;DHT22;25786;51.504;7.344;2023-04-15T02:16:47;7.60;77.00
40085;DHT22;25786;51.504;7.344;2023-04-15T02:19:12;7.50;77.40
40085;DHT22;25786;51.504;7.344;2023-04-15T02:21:38;7.40;77.80
40085;DHT22;25786;51.504;7.344;2023-04-15T02:24:04;7.40;77.80
40085;DHT22;25786;51.504;7.344;2023-04-15T02:26:29;7.40;78.10
40085;DHT22;25786;51.504;7.344;2023-04-15T02:28:57;7.40;77.80
40085;DHT22;25786;51.504;7.344;2023-04-15T02:31:22;7.40;78.10
40085;DHT22;25786;51.504;7.344;2023-04-15T02:33:48;7.40;77.90
40085;DHT22;25786;51.504;7.344;2023-04-15T02:36:14;7.30;77.80
40085;DHT22;25786;51.504;7.344;2023-04-15T02:38:39;7.30;77.80
40085;DHT22;25786;51.504;7.344;2023-04-15T02:41:08;7.30;78.00
40085;DHT22;25786;51.504;7.344;2023-04-15T02:43:33;7.20;78.50
40085;DHT22;25786;51.504;7.344;2023-04-15T02:45:59;7.20;78.50
40085;DHT22;25786;51.504;7.344;2023-04-15T02:48:24;7.20;78.30
40085;DHT22;25786;51.504;7.344;2023-04-15T02:50:50;7.30;78.20
40085;DHT22;25786;51.504;7.344;2023-04-15T02:53:15;7.20;78.40
40085;DHT22;25786;51.504;7.344;2023-04-15T02:55:41;7.20;78.80
40085;DHT22;25786;51.504;7.344;2023-04-15T02:58:07;7.20;78.90
40085;DHT22;25786;51.504;7.344;2023-04-15T03:00:32;7.10;78.60
40085;DHT22;25786;51.504;7.344;2023-04-15T03:03:02;7.10;79.00
40085;DHT22;25786;51.504;7.344;2023-04-15T03:05:28;7.10;79.30
40085;DHT22;25786;51.504;7.344;2023-04-15T03:07:53;7.00;79.40
40085;DHT22;25786;51.504;7.344;2023-04-15T03:10:19;6.90;79.40
40085;DHT22;25786;51.504;7.344;2023-04-15T03:12:45;7.00;79.60
40085;DHT22;25786;51.504;7.344;2023-04-15T03:15:10;6.90;79.40
40085;DHT22;25786;51.504;7.344;2023-04-15T03:17:36;6.90;79.70
40085;DHT22;25786;51.504;7.344;2023-04-15T03:20:02;7.00;79.30
40085;DHT22;25786;51.504;7.344;2023-04-15T03:22:30;7.00;79.10
40085;DHT22;25786;51.504;7.344;2023-04-15T03:24:56;7.00;79.00
40085;DHT22;25786;51.504;7.344;2023-04-15T03:27:22;7.00;79.00
40085;DHT22;25786;51.504;7.344;2023-04-15T03:29:47;6.90;79.70
40085;DHT22;25786;51.504;7.344;2023-04-15T03:32:13;6.90;79.40
40085;DHT22;25786;51.504;7.344;2023-04-15T03:34:39;6.90;79.70
40085;DHT22;25786;51.504;7.344;2023-04-15T03:37:05;6.80;79.60
40085;DHT22;25786;51.504;7.344;2023-04-15T03:39:31;6.80;79.50
40085;DHT22;25786;51.504;7.344;2023-04-15T03:41:57;6.80;79.70
40085;DHT22;25786;51.504;7.344;2023-04-15T03:44:23;6.80;79.80
40085;DHT22;25786;51.504;7.344;2023-04-15T03:46:49;6.70;80.10
40085;DHT22;25786;51.504;7.344;2023-04-15T03:49:14;6.70;80.10
40085;DHT22;25786;51.504;7.344;2023-04-15T03:51:40;6.70;79.70
40085;DHT22;25786;51.504;7.344;2023-04-15T03:54:05;6.60;79.90
40085;DHT22;25786;51.504;7.344;2023-04-15T03:56:31;6.50;80.50
40085;DHT22;25786;51.504;7.344;2023-04-15T03:58:56;6.60;80.40
40085;DHT22;25786;51.504;7.344;2023-04-15T04:01:23;6.50;80.60
40085;DHT22;25786;51.504;7.344;2023-04-15T04:03:48;6.50;80.50
40085;DHT22;25786;51.504;7.344;2023-04-15T04:06:14;6.50;81.00
40085;DHT22;25786;51.504;7.344;2023-04-15T04:08:39;6.40;81.20
40085;DHT22;25786;51.504;7.344;2023-04-15T04:11:05;6.40;80.90
40085;DHT22;25786;51.504;7.344;2023-04-15T04:13:31;6.30;81.20
40085;DHT22;25786;51.504;7.344;2023-04-15T04:15:56;6.30;81.10
40085;DHT22;25786;51.504;7.344;2023-04-15T04:18:21;6.20;81.60
40085;DHT22;25786;51.504;7.344;2023-04-15T04:20:47;6.30;81.40
40085;DHT22;25786;51.504;7.344;2023-04-15T04:23:12;6.20;81.90
40085;DHT22;25786;51.504;7.344;2023-04-15T04:25:38;6.20;81.50
40085;DHT22;25786;51.504;7.344;2023-04-15T04:28:03;6.20;81.70
40085;DHT22;25786;51.504;7.344;2023-04-15T04:30:29;6.20;81.60
40085;DHT22;25786;51.504;7.344;2023-04-15T04:32:54;6.20;81.70
40085;DHT22;25786;51.504;7.344;2023-04-15T04:35:20;6.10;81.90
40085;DHT22;25786;51.504;7.344;2023-04-15T04:37:46;6.10;82.30
40085;DHT22;25786;51.504;7.344;2023-04-15T04:40:11;6.20;82.50
40085;DHT22;25786;51.504;7.344;2023-04-15T04:42:37;6.10;82.50
40085;DHT22;25786;51.504;7.344;2023-04-15T04:45:02;6.20;82.60
40085;DHT22;25786;51.504;7.344;2023-04-15T04:47:28;6.30;82.40
40085;DHT22;25786;51.504;7.344;2023-04-15T04:49:54;6.20;82.40
40085;DHT22;25786;51.504;7.344;2023-04-15T04:52:20;6.20;82.10
40085;DHT22;25786;51.504;7.344;2023-04-15T04:54:45;6.20;82.30
40085;DHT22;25786;51.504;7.344;2023-04-15T04:57:11;6.20;82.50
40085;DHT22;25786;51.504;7.344;2023-04-15T04:59:38;6.20;82.30
40085;DHT22;25786;51.504;7.344;2023-04-15T05:02:03;6.20;82.40
40085;DHT22;25786;51.504;7.344;2023-04-15T05:04:28;6.20;82.60
40085;DHT22;25786;51.504;7.344;2023-04-15T05:06:56;6.20;82.40
40085;DHT22;25786;51.504;7.344;2023-04-15T05:09:21;6.30;82.40
40085;DHT22;25786;51.504;7.344;2023-04-15T05:11:47;6.30;82.30
40085;DHT22;25786;51.504;7.344;2023-04-15T05:14:12;6.20;82.50
40085;DHT22;25786;51.504;7.344;2023-04-15T05:16:38;6.30;82.80
40085;DHT22;25786;51.504;7.344;2023-04-15T05:19:03;6.40;82.60
40085;DHT22;25786;51.504;7.344;2023-04-15T05:21:28;6.30;82.40
40085;DHT22;25786;51.504;7.344;2023-04-15T05:23:55;6.30;82.60
40085;DHT22;25786;51.504;7.344;2023-04-15T05:26:20;6.40;82.50
40085;DHT22;25786;51.504;7.344;2023-04-15T05:28:46;6.40;82.40
40085;DHT22;25786;51.504;7.344;2023-04-15T05:31:12;6.30;82.50
40085;DHT22;25786;51.504;7.344;2023-04-15T05:33:37;6.40;82.30
40085;DHT22;25786;51.504;7.344;2023-04-15T05:36:03;6.40;82.50
40085;DHT22;25786;51.504;7.344;2023-04-15T05:38:28;6.40;82.50
40085;DHT22;25786;51.504;7.344;2023-04-15T05:40:54;6.40;82.50
40085;DHT22;25786;51.504;7.344;2023-04-15T05:43:19;6.30;82.40
40085;DHT22;25786;51.504;7.344;2023-04-15T05:45:44;6.50;82.40
40085;DHT22;25786;51.504;7.344;2023-04-15T05:48:10;6.40;82.60
40085;DHT22;25786;51.504;7.344;2023-04-15T05:50:36;6.50;82.10
40085;DHT22;25786;51.504;7.344;2023-04-15T05:53:01;6.50;82.70
40085;DHT22;25786;51.504;7.344;2023-04-15T05:55:27;6.60;82.20
40085;DHT22;25786;51.504;7.344;2023-04-15T05:57:52;6.60;82.20
40085;DHT22;25786;51.504;7.344;2023-04-15T06:00:18;6.70;82.20
40085;DHT22;25786;51.504;7.344;2023-04-15T06:02:43;6.70;82.30
40085;DHT22;25786;51.504;7.344;2023-04-15T06:05:09;6.80;82.00
40085;DHT22;25786;51.504;7.344;2023-04-15T06:07:36;6.80;81.80
40085;DHT22;25786;51.504;7.344;2023-04-15T06:10:02;6.70;81.90
40085;DHT22;25786;51.504;7.344;2023-04-15T06:12:27;6.80;82.10
40085;DHT22;25786;51.504;7.344;2023-04-15T06:14:53;6.90;81.60
40085;DHT22;25786;51.504;7.344;2023-04-15T06:17:18;6.80;81.50
40085;DHT22;25786;51.504;7.344;2023-04-15T06:19:43;7.00;81.80
40085;DHT22;25786;51.504;7.344;2023-04-15T06:22:09;7.00;81.30
40085;DHT22;25786;51.504;7.344;2023-04-15T06:24:34;6.90;81.40
40085;DHT22;25786;51.504;7.344;2023-04-15T06:27:01;7.00;81.70
40085;DHT22;25786;51.504;7.344;2023-04-15T06:29:27;7.10;81.60
40085;DHT22;25786;51.504;7.344;2023-04-15T06:31:53;7.30;81.30
40085;DHT22;25786;51.504;7.344;2023-04-15T06:34:18;7.30;81.00
40085;DHT22;25786;51.504;7.344;2023-04-15T06:36:44;7.40;80.90
40085;DHT22;25786;51.504;7.344;2023-04-15T06:39:09;7.30;80.50
40085;DHT22;25786;51.504;7.344;2023-04-15T06:41:35;7.30;81.10
40085;DHT22;25786;51.504;7.344;2023-04-15T06:44:00;7.30;81.20
40085;DHT22;25786;51.504;7.344;2023-04-15T06:46:26;7.40;81.20
40085;DHT22;25786;51.504;7.344;2023-04-15T06:48:51;7.50;80.80
40085;DHT22;25786;51.504;7.344;2023-04-15T06:51:17;7.50;80.90
40085;DHT22;25786;51.504;7.344;2023-04-15T06:53:43;7.50;81.00
40085;DHT22;25786;51.504;7.344;2023-04-15T06:56:09;7.50;81.00
40085;DHT22;25786;51.504;7.344;2023-04-15T06:58:34;7.60;81.10
40085;DHT22;25786;51.504;7.344;2023-04-15T07:01:00;7.60;81.10
40085;DHT22;25786;51.504;7.344;2023-04-15T07:03:26;7.80;81.30
40085;DHT22;25786;51.504;7.344;2023-04-15T07:05:51;7.90;80.70
40085;DHT22;25786;51.504;7.344;2023-04-15T07:08:18;7.80;80.90
40085;DHT22;25786;51.504;7.344;2023-04-15T07:10:44;7.70;81.30
40085;DHT22;25786;51.504;7.344;2023-04-15T07:13:10;7.80;81.30
40085;DHT22;25786;51.504;7.344;2023-04-15T07:15:36;8.00;81.50
40085;DHT22;25786;51.504;7.344;2023-04-15T07:18:01;8.10;80.80
40085;DHT22;25786;51.504;7.344;2023-04-15T07:20:27;8.10;81.30
40085;DHT22;25786;51.504;7.344;2023-04-15T07:22:52;8.20;80.80
40085;DHT22;25786;51.504;7.344;2023-04-15T07:25:18;8.40;80.90
40085;DHT22;25786;51.504;7.344;2023-04-15T07:27:43;8.60;80.60
40085;DHT22;25786;51.504;7.344;2023-04-15T07:30:09;8.60;79.80
40085;DHT22;25786;51.504;7.344;2023-04-15T07:32:35;8.70;80.10
40085;DHT22;25786;51.504;7.344;2023-04-15T07:35:00;8.70;80.30
40085;DHT22;25786;51.504;7.344;2023-04-15T07:37:28;8.80;79.40
40085;DHT22;25786;51.504;7.344;2023-04-15T07:39:54;8.80;78.90
40085;DHT22;25786;51.504;7.344;2023-04-15T07:42:19;8.70;79.20
40085;DHT22;25786;51.504;7.344;2023-04-15T07:44:44;8.70;79.40
40085;DHT22;25786;51.504;7.344;2023-04-15T07:47:10;8.80;80.10
40085;DHT22;25786;51.504;7.344;2023-04-15T07:49:36;9.10;79.20
40085;DHT22;25786;51.504;7.344;2023-04-15T07:52:02;9.10;78.90
40085;DHT22;25786;51.504;7.344;2023-04-15T07:54:28;9.20;77.70
40085;DHT22;25786;51.504;7.344;2023-04-15T07:56:53;9.20;77.10
40085;DHT22;25786;51.504;7.344;2023-04-15T07:59:19;9.10;77.40
40085;DHT22;25786;51.504;7.344;2023-04-15T08:01:44;9.10;77.10
40085;DHT22;25786;51.504;7.344;2023-04-15T08:04:09;9.30;77.00
40085;DHT22;25786;51.504;7.344;2023-04-15T08:06:35;9.30;76.30
40085;DHT22;25786;51.504;7.344;2023-04-15T08:09:04;9.20;76.40
40085;DHT22;25786;51.504;7.344;2023-04-15T08:11:29;9.40;77.30
40085;DHT22;25786;51.504;7.344;2023-04-15T08:13:55;9.50;76.10
40085;DHT22;25786;51.504;7.344;2023-04-15T08:16:21;9.60;75.00
40085;DHT22;25786;51.504;7.344;2023-04-15T08:18:47;9.50;75.10
40085;DHT22;25786;51.504;7.344;2023-04-15T08:21:13;9.30;75.10
40085;DHT22;25786;51.504;7.344;2023-04-15T08:23:39;9.40;75.50
40085;DHT22;25786;51.504;7.344;2023-04-15T08:26:04;9.40;75.90
40085;DHT22;25786;51.504;7.344;2023-04-15T08:28:30;9.50;75.90
40085;DHT22;25786;51.504;7.344;2023-04-15T08:30:56;9.50;75.80
40085;DHT22;25786;51.504;7.344;2023-04-15T08:33:21;9.60;75.90
40085;DHT22;25786;51.504;7.344;2023-04-15T08:35:47;9.60;75.60
40085;DHT22;25786;51.504;7.344;2023-04-15T08:38:12;9.80;74.80
40085;DHT22;25786;51.504;7.344;2023-04-15T08:40:42;9.80;75.10
40085;DHT22;25786;51.504;7.344;2023-04-15T08:43:20;9.80;74.90
40085;DHT22;25786;51.504;7.344;2023-04-15T08:45:49;10.00;74.20
40085;DHT22;25786;51.504;7.344;2023-04-15T08:48:16;10.00;74.30
40085;DHT22;25786;51.504;7.344;2023-04-15T08:50:41;10.00;74.30
40085;DHT22;25786;51.504;7.344;2023-04-15T08:53:07;10.00;74.20
40085;DHT22;25786;51.504;7.344;2023-04-15T08:55:35;10.00;73.80
40085;DHT22;25786;51.504;7.344;2023-04-15T08:58:01;10.00;74.50
40085;DHT22;25786;51.504;7.344;2023-04-15T09:00:30;9.90;74.20
40085;DHT22;25786;51.504;7.344;2023-04-15T09:02:57;9.90;74.50
40085;DHT22;25786;51.504;7.344;2023-04-15T09:05:23;10.00;74.30
40085;DHT22;25786;51.504;7.344;2023-04-15T09:07:49;10.10;73.40
40085;DHT22;25786;51.504;7.344;2023-04-15T09:10:15;10.10;74.10
40085;DHT22;25786;51.504;7.344;2023-04-15T09:12:40;9.90;74.20
40085;DHT22;25786;51.504;7.344;2023-04-15T09:15:06;9.70;74.90
40085;DHT22;25786;51.504;7.344;2023-04-15T09:17:33;9.60;75.20
40085;DHT22;25786;51.504;7.344;2023-04-15T09:20:09;9.60;76.10
40085;DHT22;25786;51.504;7.344;2023-04-15T09:22:35;9.60;76.30
40085;DHT22;25786;51.504;7.344;2023-04-15T09:25:01;9.60;76.70
40085;DHT22;25786;51.504;7.344;2023-04-15T09:27:27;9.70;76.80
40085;DHT22;25786;51.504;7.344;2023-04-15T09:29:52;9.90;75.80
40085;DHT22;25786;51.504;7.344;2023-04-15T09:32:18;10.00;75.00
40085;DHT22;25786;51.504;7.344;2023-04-15T09:34:45;9.90;75.90
40085;DHT22;25786;51.504;7.344;2023-04-15T09:37:11;9.90;75.90
40085;DHT22;25786;51.504;7.344;2023-04-15T09:39:47;10.10;75.60
40085;DHT22;25786;51.504;7.344;2023-04-15T09:42:14;10.20;75.30
40085;DHT22;25786;51.504;7.344;2023-04-15T09:44:39;10.00;75.30
40085;DHT22;25786;51.504;7.344;2023-04-15T09:47:05;10.10;75.30
40085;DHT22;25786;51.504;7.344;2023-04-15T09:49:30;10.10;75.80
40085;DHT22;25786;51.504;7.344;2023-04-15T09:51:58;10.40;75.10
40085;DHT22;25786;51.504;7.344;2023-04-15T09:54:24;10.20;75.20
40085;DHT22;25786;51.504;7.344;2023-04-15T09:56:49;10.50;74.50
40085;DHT22;25786;51.504;7.344;2023-04-15T09:59:15;10.40;74.30
40085;DHT22;25786;51.504;7.344;2023-04-15T10:01:41;10.30;75.20
40085;DHT22;25786;51.504;7.344;2023-04-15T10:04:06;10.30;75.30
40085;DHT22;25786;51.504;7.344;2023-04-15T10:06:33;10.20;75.70
40085;DHT22;25786;51.504;7.344;2023-04-15T10:08:58;10.40;74.80
40085;DHT22;25786;51.504;7.344;2023-04-15T10:11:27;10.30;74.90
40085;DHT22;25786;51.504;7.344;2023-04-15T10:13:53;10.20;75.70
40085;DHT22;25786;51.504;7.344;2023-04-15T10:16:20;10.30;75.50
40085;DHT22;25786;51.504;7.344;2023-04-15T10:18:54;10.30;74.90
40085;DHT22;25786;51.504;7.344;2023-04-15T10:21:20;10.10;75.80
40085;DHT22;25786;51.504;7.344;2023-04-15T10:23:47;10.10;76.00
40085;DHT22;25786;51.504;7.344;2023-04-15T10:26:13;10.10;76.10
40085;DHT22;25786;51.504;7.344;2023-04-15T10:28:40;10.20;75.70
40085;DHT22;25786;51.504;7.344;2023-04-15T10:31:05;10.10;76.20
40085;DHT22;25786;51.504;7.344;2023-04-15T10:33:31;10.20;76.00
40085;DHT22;25786;51.504;7.344;2023-04-15T10:35:58;10.30;75.70
40085;DHT22;25786;51.504;7.344;2023-04-15T10:38:34;10.30;75.70
40085;DHT22;25786;51.504;7.344;2023-04-15T10:43:44;10.10;76.30
40085;DHT22;25786;51.504;7.344;2023-04-15T10:46:10;10.00;76.80
40085;DHT22;25786;51.504;7.344;2023-04-15T10:48:36;10.00;77.10
40085;DHT22;25786;51.504;7.344;2023-04-15T10:51:01;10.10;76.70
40085;DHT22;25786;51.504;7.344;2023-04-15T10:53:29;10.10;76.40
40085;DHT22;25786;51.504;7.344;2023-04-15T10:55:56;10.10;76.70
40085;DHT22;25786;51.504;7.344;2023-04-15T10:58:22;10.30;76.50
40085;DHT22;25786;51.504;7.344;2023-04-15T11:00:51;10.30;75.90
40085;DHT22;25786;51.504;7.344;2023-04-15T11:03:33;10.00;76.50
40085;DHT22;25786;51.504;7.344;2023-04-15T11:06:00;10.00;77.40
40085;DHT22;25786;51.504;7.344;2023-04-15T11:08:51;10.00;77.00
40085;DHT22;25786;51.504;7.344;2023-04-15T11:11:17;10.00;77.60
40085;DHT22;25786;51.504;7.344;2023-04-15T11:13:46;10.00;77.30
40085;DHT22;25786;51.504;7.344;2023-04-15T11:16:12;10.00;77.30
40085;DHT22;25786;51.504;7.344;2023-04-15T11:18:38;10.00;77.00
40085;DHT22;25786;51.504;7.344;2023-04-15T11:21:04;10.10;76.30
40085;DHT22;25786;51.504;7.344;2023-04-15T11:23:31;10.10;76.20
40085;DHT22;25786;51.504;7.344;2023-04-15T11:25:57;10.10;76.90
40085;DHT22;25786;51.504;7.344;2023-04-15T11:28:24;10.10;76.90
40085;DHT22;25786;51.504;7.344;2023-04-15T11:30:50;10.10;76.40
40085;DHT22;25786;51.504;7.344;2023-04-15T11:33:16;10.00;76.60
40085;DHT22;25786;51.504;7.344;2023-04-15T11:35:42;10.00;76.80
40085;DHT22;25786;51.504;7.344;2023-04-15T11:38:09;10.00;77.10
40085;DHT22;25786;51.504;7.344;2023-04-15T11:40:36;10.00;76.80
40085;DHT22;25786;51.504;7.344;2023-04-15T11:43:11;9.90;77.40
40085;DHT22;25786;51.504;7.344;2023-04-15T11:45:38;10.10;76.80
40085;DHT22;25786;51.504;7.344;2023-04-15T11:48:12;10.00;76.90
40085;DHT22;25786;51.504;7.344;2023-04-15T11:50:37;10.10;76.10
40085;DHT22;25786;51.504;7.344;2023-04-15T11:53:10;10.20;76.10
40085;DHT22;25786;51.504;7.344;2023-04-15T11:55:43;10.20;76.30
40085;DHT22;25786;51.504;7.344;2023-04-15T11:58:15;10.10;76.70
40085;DHT22;25786;51.504;7.344;2023-04-15T12:03:23;10.30;76.50
40085;DHT22;25786;51.504;7.344;2023-04-15T12:11:15;10.50;76.30
40085;DHT22;25786;51.504;7.344;2023-04-15T12:13:47;10.50;75.60
40085;DHT22;25786;51.504;7.344;2023-04-15T12:16:20;10.60;75.60
40085;DHT22;25786;51.504;7.344;2023-04-15T12:18:46;10.60;75.50
40085;DHT22;25786;51.504;7.344;2023-04-15T12:21:11;10.50;75.80
40085;DHT22;25786;51.504;7.344;2023-04-15T12:24:10;10.60;75.20
40085;DHT22;25786;51.504;7.344;2023-04-15T12:26:30;10.60;75.40
40085;DHT22;25786;51.504;7.344;2023-04-15T12:28:59;10.60;75.80
40085;DHT22;25786;51.504;7.344;2023-04-15T12:31:25;10.60;76.40
40085;DHT22;25786;51.504;7.344;2023-04-15T12:33:50;10.60;75.90
40085;DHT22;25786;51.504;7.344;2023-04-15T12:36:16;10.70;75.10
40085;DHT22;25786;51.504;7.344;2023-04-15T12:38:41;10.70;75.50
40085;DHT22;25786;51.504;7.344;2023-04-15T12:41:07;10.60;75.40
40085;DHT22;25786;51.504;7.344;2023-04-15T12:43:32;10.60;75.20
40085;DHT22;25786;51.504;7.344;2023-04-15T12:45:58;10.60;75.40
40085;DHT22;25786;51.504;7.344;2023-04-15T12:48:23;10.50;76.10
40085;DHT22;25786;51.504;7.344;2023-04-15T12:50:49;10.50;76.30
40085;DHT22;25786;51.504;7.344;2023-04-15T12:53:14;10.50;76.10
40085;DHT22;25786;51.504;7.344;2023-04-15T12:55:40;10.50;75.90
40085;DHT22;25786;51.504;7.344;2023-04-15T12:58:05;10.50;76.00
40085;DHT22;25786;51.504;7.344;2023-04-15T13:00:32;10.40;77.80
40085;DHT22;25786;51.504;7.344;2023-04-15T13:02:58;10.40;76.20
40085;DHT22;25786;51.504;7.344;2023-04-15T13:05:23;10.50;76.10
40085;DHT22;25786;51.504;7.344;2023-04-15T13:07:49;10.40;76.90
40085;DHT22;25786;51.504;7.344;2023-04-15T13:10:14;10.50;75.90
40085;DHT22;25786;51.504;7.344;2023-04-15T13:12:40;10.40;76.20
40085;DHT22;25786;51.504;7.344;2023-04-15T13:15:06;10.40;75.90
40085;DHT22;25786;51.504;7.344;2023-04-15T13:17:31;10.30;76.90
40085;DHT22;25786;51.504;7.344;2023-04-15T13:19:57;10.40;77.30
40085;DHT22;25786;51.504;7.344;2023-04-15T13:22:22;10.50;77.50
40085;DHT22;25786;51.504;7.344;2023-04-15T13:24:47;10.60;76.40
40085;DHT22;25786;51.504;7.344;2023-04-15T13:27:13;10.60;75.60
40085;DHT22;25786;51.504;7.344;2023-04-15T13:29:39;10.60;76.80
40085;DHT22;25786;51.504;7.344;2023-04-15T13:32:04;10.60;77.00
40085;DHT22;25786;51.504;7.344;2023-04-15T13:34:30;10.60;76.50
40085;DHT22;25786;51.504;7.344;2023-04-15T13:36:56;10.60;76.00
40085;DHT22;25786;51.504;7.344;2023-04-15T13:39:21;10.60;76.30
40085;DHT22;25786;51.504;7.344;2023-04-15T13:41:47;10.50;76.10
40085;DHT22;25786;51.504;7.344;2023-04-15T13:44:13;10.40;77.20
40085;DHT22;25786;51.504;7.344;2023-04-15T13:46:39;10.40;76.90
40085;DHT22;25786;51.504;7.344;2023-04-15T13:49:06;10.40;76.90
40085;DHT22;25786;51.504;7.344;2023-04-15T13:51:31;10.40;76.90
40085;DHT22;25786;51.504;7.344;2023-04-15T13:53:57;10.50;76.30
40085;DHT22;25786;51.504;7.344;2023-04-15T13:56:22;10.40;76.50
40085;DHT22;25786;51.504;7.344;2023-04-15T13:58:48;10.40;76.90
40085;DHT22;25786;51.504;7.344;2023-04-15T14:01:13;10.40;77.10
40085;DHT22;25786;51.504;7.344;2023-04-15T14:03:39;10.50;76.50
40085;DHT22;25786;51.504;7.344;2023-04-15T14:06:04;10.40;76.70
40085;DHT22;25786;51.504;7.344;2023-04-15T14:08:30;10.50;76.40
40085;DHT22;25786;51.504;7.344;2023-04-15T14:10:56;10.40;77.10
40085;DHT22;25786;51.504;7.344;2023-04-15T14:13:21;10.40;77.20
40085;DHT22;25786;51.504;7.344;2023-04-15T14:15:47;10.40;78.40
40085;DHT22;25786;51.504;7.344;2023-04-15T14:18:13;10.50;77.50
40085;DHT22;25786;51.504;7.344;2023-04-15T14:20:38;10.50;78.50
40085;DHT22;25786;51.504;7.344;2023-04-15T14:23:04;10.40;77.70
40085;DHT22;25786;51.504;7.344;2023-04-15T14:25:29;10.30;78.40
40085;DHT22;25786;51.504;7.344;2023-04-15T14:27:56;10.20;78.90
40085;DHT22;25786;51.504;7.344;2023-04-15T14:30:21;10.30;78.30
40085;DHT22;25786;51.504;7.344;2023-04-15T14:32:47;10.30;78.70
40085;DHT22;25786;51.504;7.344;2023-04-15T14:35:12;10.40;79.10
40085;DHT22;25786;51.504;7.344;2023-04-15T14:37:37;10.40;78.70
40085;DHT22;25786;51.504;7.344;2023-04-15T14:40:03;10.40;78.70
40085;DHT22;25786;51.504;7.344;2023-04-15T14:42:28;10.30;79.30
40085;DHT22;25786;51.504;7.344;2023-04-15T14:44:54;10.30;79.30
40085;DHT22;25786;51.504;7.344;2023-04-15T14:47:19;10.20;79.30
40085;DHT22;25786;51.504;7.344;2023-04-15T14:49:45;10.10;79.90
40085;DHT22;25786;51.504;7.344;2023-04-15T14:52:11;10.10;80.20
40085;DHT22;25786;51.504;7.344;2023-04-15T14:54:36;10.00;80.60
40085;DHT22;25786;51.504;7.344;2023-04-15T14:57:01;9.90;80.60
40085;DHT22;25786;51.504;7.344;2023-04-15T14:59:27;9.90;81.30
40085;DHT22;25786;51.504;7.344;2023-04-15T15:01:52;9.90;81.60
40085;DHT22;25786;51.504;7.344;2023-04-15T15:04:18;9.90;81.70
40085;DHT22;25786;51.504;7.344;2023-04-15T15:06:43;10.00;81.70
40085;DHT22;25786;51.504;7.344;2023-04-15T15:09:09;10.00;81.60
40085;DHT22;25786;51.504;7.344;2023-04-15T15:11:34;10.00;82.10
40085;DHT22;25786;51.504;7.344;2023-04-15T15:14:00;10.10;81.40
40085;DHT22;25786;51.504;7.344;2023-04-15T15:16:26;10.10;82.40
40085;DHT22;25786;51.504;7.344;2023-04-15T15:18:51;10.10;82.80
40085;DHT22;25786;51.504;7.344;2023-04-15T15:21:17;10.00;83.20
40085;DHT22;25786;51.504;7.344;2023-04-15T15:23:43;10.00;83.50
40085;DHT22;25786;51.504;7.344;2023-04-15T15:26:08;10.00;83.70
40085;DHT22;25786;51.504;7.344;2023-04-15T15:28:34;10.10;83.40
40085;DHT22;25786;51.504;7.344;2023-04-15T15:30:59;10.00;83.50
40085;DHT22;25786;51.504;7.344;2023-04-15T15:33:25;10.00;83.90
40085;DHT22;25786;51.504;7.344;2023-04-15T15:35:50;10.00;84.10
40085;DHT22;25786;51.504;7.344;2023-04-15T15:38:16;9.90;84.30
40085;DHT22;25786;51.504;7.344;2023-04-15T15:40:41;9.70;85.30
40085;DHT22;25786;51.504;7.344;2023-04-15T15:43:07;9.60;86.30